createdAt,value
2023-04-07T00:03:31.113Z,2.10
2023-04-07T00:09:02.819Z,2.03
2023-04-07T00:14:17.865Z,3.00
2023-04-07T00:19:28.944Z,2.60
2023-04-07T00:24:50.401Z,2.42
2023-04-07T00:29:58.563Z,1.77
2023-04-07T00:35:02.406Z,1.35
2023-04-07T00:40:10.856Z,2.08
2023-04-07T00:45:21.701Z,2.40
2023-04-07T00:50:29.171Z,1.83
2023-04-07T00:55:37.086Z,1.75
2023-04-07T01:01:40.158Z,3.25
2023-04-07T01:06:48.893Z,2.55
2023-04-07T01:12:24.724Z,2.20
2023-04-07T01:17:31.739Z,1.70
2023-04-07T01:22:57.768Z,2.55
2023-04-07T01:28:52.001Z,1.60
2023-04-07T01:33:59.640Z,1.90
2023-04-07T01:39:08.812Z,1.73
2023-04-07T01:44:12.880Z,1.45
2023-04-07T01:49:19.237Z,1.38
2023-04-07T01:54:30.098Z,2.17
2023-04-07T01:59:35.812Z,1.05
2023-04-07T02:05:12.133Z,2.22
2023-04-07T02:16:17.256Z,1.88
2023-04-07T02:21:30.593Z,2.05
2023-04-07T02:31:54.241Z,1.75
2023-04-07T02:37:01.981Z,2.85
2023-04-07T02:42:30.256Z,1.70
2023-04-07T02:47:59.437Z,1.70
2023-04-07T02:53:02.117Z,1.90
2023-04-07T02:58:13.797Z,2.10
2023-04-07T03:03:23.900Z,1.55
2023-04-07T03:09:14.360Z,1.40
2023-04-07T03:14:43.785Z,1.67
2023-04-07T03:19:58.610Z,1.75
2023-04-07T03:25:18.954Z,1.37
2023-04-07T03:30:29.984Z,3.15
2023-04-07T03:35:36.324Z,2.35
2023-04-07T03:40:47.118Z,1.33
2023-04-07T03:45:57.114Z,1.90
2023-04-07T03:51:18.644Z,2.50
2023-04-07T03:56:29.088Z,2.42
2023-04-07T04:02:27.420Z,2.20
2023-04-07T04:13:44.792Z,1.98
2023-04-07T04:19:16.558Z,1.98
2023-04-07T04:24:25.178Z,2.67
2023-04-07T04:29:35.662Z,2.33
2023-04-07T04:34:43.233Z,2.30
2023-04-07T04:40:18.356Z,1.80
2023-04-07T04:45:42.632Z,1.48
2023-04-07T04:50:53.406Z,1.50
2023-04-07T04:55:58.608Z,2.10
2023-04-07T05:01:18.730Z,1.33
2023-04-07T05:06:38.241Z,1.67
2023-04-07T05:11:49.017Z,2.90
2023-04-07T05:17:01.747Z,2.15
2023-04-07T05:22:25.700Z,1.45
2023-04-07T05:27:30.359Z,1.45
2023-04-07T05:33:06.315Z,1.25
2023-04-07T05:38:24.848Z,1.58
2023-04-07T05:43:39.633Z,2.08
2023-04-07T05:48:52.412Z,2.08
2023-04-07T05:54:16.832Z,2.17
2023-04-07T05:59:32.449Z,2.35
2023-04-07T06:04:44.496Z,1.92
2023-04-07T06:09:52.886Z,2.70
2023-04-07T06:15:10.907Z,2.45
2023-04-07T06:20:41.524Z,2.38
2023-04-07T06:25:46.846Z,2.45
2023-04-07T06:31:11.517Z,2.40
2023-04-07T06:36:22.842Z,2.80
2023-04-07T06:41:33.697Z,2.08
2023-04-07T06:47:02.447Z,2.72
2023-04-07T06:52:16.841Z,3.42
2023-04-07T06:57:24.549Z,3.53
2023-04-07T07:02:47.215Z,2.10
2023-04-07T07:08:23.025Z,2.35
2023-04-07T07:13:32.062Z,5.07
2023-04-07T07:18:52.094Z,3.20
2023-04-07T07:23:56.624Z,3.30
2023-04-07T07:28:59.299Z,3.80
2023-04-07T07:34:16.217Z,2.03
2023-04-07T07:39:19.631Z,2.63
2023-04-07T07:44:25.905Z,1.92
2023-04-07T07:49:30.186Z,1.73
2023-04-07T07:54:49.403Z,1.80
2023-04-07T08:00:00.945Z,2.50
2023-04-07T08:05:09.648Z,2.50
2023-04-07T08:10:16.143Z,2.38
2023-04-07T08:15:19.314Z,1.85
2023-04-07T08:20:21.529Z,2.00
2023-04-07T08:25:24.666Z,1.73
2023-04-07T08:30:26.739Z,1.45
2023-04-07T08:35:31.646Z,1.92
2023-04-07T08:40:35.151Z,1.63
2023-04-07T08:45:43.307Z,1.77
2023-04-07T08:50:46.424Z,1.10
2023-04-07T08:55:54.795Z,1.13
2023-04-07T09:06:15.086Z,1.40
2023-04-07T09:11:26.675Z,0.82
2023-04-07T09:16:32.240Z,0.70
2023-04-07T09:22:16.280Z,0.50
2023-04-07T09:27:19.748Z,0.63
2023-04-07T09:32:41.617Z,1.23
2023-04-07T09:37:45.069Z,0.70
2023-04-07T09:42:53.464Z,1.05
2023-04-07T09:47:58.258Z,0.43
2023-04-07T09:53:01.613Z,1.15
2023-04-07T09:58:06.400Z,0.47
2023-04-07T10:03:09.291Z,0.60
2023-04-07T10:08:12.403Z,0.85
2023-04-07T10:13:16.772Z,0.80
2023-04-07T10:18:21.146Z,0.38
2023-04-07T10:23:32.030Z,0.95
2023-04-07T10:28:35.545Z,1.25
2023-04-07T10:33:52.445Z,0.82
2023-04-07T10:39:10.046Z,1.08
2023-04-07T10:44:41.111Z,1.00
2023-04-07T10:50:19.448Z,1.17
2023-04-07T10:55:34.925Z,0.77
2023-04-07T11:00:37.312Z,1.10
2023-04-07T11:05:40.865Z,0.93
2023-04-07T11:10:48.375Z,1.25
2023-04-07T11:15:54.077Z,1.20
2023-04-07T11:20:59.096Z,1.10
2023-04-07T11:26:03.185Z,0.98
2023-04-07T11:31:05.432Z,1.00
2023-04-07T11:36:10.143Z,0.80
2023-04-07T11:41:15.508Z,0.40
2023-04-07T11:46:19.157Z,0.65
2023-04-07T11:51:24.019Z,0.60
2023-04-07T11:56:28.147Z,0.70
2023-04-07T12:01:45.087Z,0.50
2023-04-07T12:06:48.399Z,0.52
2023-04-07T12:11:50.744Z,0.82
2023-04-07T12:16:56.356Z,1.33
2023-04-07T12:21:58.616Z,1.30
2023-04-07T12:27:00.659Z,1.75
2023-04-07T12:32:03.339Z,1.30
2023-04-07T12:37:06.201Z,0.70
2023-04-07T12:42:15.660Z,0.55
2023-04-07T12:47:17.831Z,0.70
2023-04-07T12:52:19.887Z,0.65
2023-04-07T12:57:22.092Z,0.60
2023-04-07T13:02:25.033Z,0.60
2023-04-07T13:07:28.145Z,0.70
2023-04-07T13:12:30.406Z,0.73
2023-04-07T13:17:32.665Z,0.68
2023-04-07T13:22:35.913Z,1.75
2023-04-07T13:27:38.214Z,0.90
2023-04-07T13:32:40.440Z,0.82
2023-04-07T13:37:42.525Z,0.68
2023-04-07T13:42:44.564Z,0.90
2023-04-07T13:47:47.023Z,1.65
2023-04-07T13:52:49.101Z,0.80
2023-04-07T13:57:51.475Z,1.00
2023-04-07T14:02:56.173Z,0.90
2023-04-07T14:07:58.409Z,1.15
2023-04-07T14:13:01.564Z,0.65
2023-04-07T14:18:03.789Z,1.20
2023-04-07T14:23:05.845Z,0.93
2023-04-07T14:28:08.273Z,0.45
2023-04-07T14:33:10.663Z,1.02
2023-04-07T14:38:14.109Z,0.50
2023-04-07T14:43:16.727Z,0.50
2023-04-07T14:48:18.857Z,0.60
2023-04-07T14:53:21.533Z,0.95
2023-04-07T14:58:23.594Z,0.40
2023-04-07T15:03:26.100Z,0.77
2023-04-07T15:08:28.368Z,1.42
2023-04-07T15:13:30.438Z,0.95
2023-04-07T15:18:32.597Z,0.80
2023-04-07T15:23:34.908Z,0.40
2023-04-07T15:28:37.133Z,1.65
2023-04-07T15:33:40.598Z,0.50
2023-04-07T15:38:52.388Z,0.80
2023-04-07T15:43:54.671Z,0.80
2023-04-07T15:48:56.727Z,0.43
2023-04-07T15:54:00.160Z,0.45
2023-04-07T15:59:02.269Z,0.50
2023-04-07T16:04:04.663Z,1.00
2023-04-07T16:09:06.815Z,0.57
2023-04-07T16:14:09.416Z,0.50
2023-04-07T16:19:11.938Z,1.42
2023-04-07T16:24:14.273Z,0.60
2023-04-07T16:29:19.579Z,1.55
2023-04-07T16:34:21.962Z,0.60
2023-04-07T16:39:25.461Z,1.60
2023-04-07T16:44:29.511Z,0.57
2023-04-07T16:49:31.550Z,1.02
2023-04-07T16:54:36.648Z,1.00
2023-04-07T16:59:39.167Z,0.80
2023-04-07T17:04:41.752Z,1.60
2023-04-07T17:09:43.961Z,1.00
2023-04-07T17:14:46.100Z,0.60
2023-04-07T17:19:48.198Z,1.70
2023-04-07T17:24:50.325Z,0.82
2023-04-07T17:29:52.404Z,0.50
2023-04-07T17:34:54.565Z,1.95
2023-04-07T17:39:56.655Z,0.70
2023-04-07T17:44:58.748Z,0.50
2023-04-07T17:50:01.800Z,0.40
2023-04-07T17:55:04.294Z,0.50
2023-04-07T18:00:07.236Z,0.65
2023-04-07T18:05:15.358Z,0.73
2023-04-07T18:10:18.507Z,0.55
2023-04-07T18:15:21.156Z,0.70
2023-04-07T18:20:23.460Z,0.95
2023-04-07T18:25:25.909Z,1.10
2023-04-07T18:30:28.062Z,0.60
2023-04-07T18:35:30.765Z,0.60
2023-04-07T18:40:34.961Z,1.52
2023-04-07T18:45:40.202Z,0.57
2023-04-07T18:50:42.740Z,0.40
2023-04-07T18:55:45.513Z,0.70
2023-04-07T19:00:53.252Z,0.73
2023-04-07T19:05:59.014Z,0.95
2023-04-07T19:11:01.181Z,0.95
2023-04-07T19:16:07.671Z,1.08
2023-04-07T19:21:10.118Z,0.30
2023-04-07T19:26:17.388Z,0.60
2023-04-07T19:31:21.825Z,1.20
2023-04-07T19:36:26.231Z,1.25
2023-04-07T19:41:35.034Z,0.82
2023-04-07T19:46:37.586Z,1.25
2023-04-07T19:51:42.019Z,0.60
2023-04-07T19:56:48.611Z,1.27
2023-04-07T20:01:55.543Z,0.70
2023-04-07T20:06:57.655Z,1.20
2023-04-07T20:12:02.022Z,0.95
2023-04-07T20:17:04.268Z,0.60
2023-04-07T20:22:10.278Z,0.73
2023-04-07T20:27:18.604Z,0.82
2023-04-07T20:32:23.278Z,1.08
2023-04-07T20:37:33.717Z,1.05
2023-04-07T20:42:35.919Z,1.55
2023-04-07T20:47:38.226Z,1.42
2023-04-07T20:52:43.476Z,0.85
2023-04-07T20:57:48.504Z,2.10
2023-04-07T21:02:50.966Z,2.17
2023-04-07T21:07:54.091Z,2.20
2023-04-07T21:12:56.463Z,1.30
2023-04-07T21:17:58.612Z,1.13
2023-04-07T21:23:00.829Z,1.20
2023-04-07T21:28:03.100Z,1.10
2023-04-07T21:33:05.324Z,1.30
2023-04-07T21:38:07.626Z,1.00
2023-04-07T21:43:09.737Z,0.80
2023-04-07T21:48:11.914Z,1.13
2023-04-07T21:53:13.981Z,0.93
2023-04-07T21:58:16.041Z,0.85
2023-04-07T22:03:18.869Z,1.05
2023-04-07T22:08:21.439Z,0.73
2023-04-07T22:13:23.550Z,0.35
2023-04-07T22:18:26.120Z,0.70
2023-04-07T22:23:28.271Z,1.10
2023-04-07T22:28:31.532Z,0.80
2023-04-07T22:33:34.965Z,1.00
2023-04-07T22:38:37.030Z,1.00
2023-04-07T22:43:39.104Z,0.98
2023-04-07T22:48:42.477Z,0.63
2023-04-07T22:53:45.435Z,0.98
2023-04-07T22:58:48.015Z,0.80
2023-04-07T23:03:51.260Z,0.90
2023-04-07T23:08:53.388Z,0.93
2023-04-07T23:13:55.675Z,1.23
2023-04-07T23:18:57.892Z,1.10
2023-04-07T23:24:00.227Z,1.05
2023-04-07T23:29:05.214Z,2.58
2023-04-07T23:34:07.478Z,0.77
2023-04-07T23:39:09.616Z,2.50
2023-04-07T23:44:14.400Z,1.23
2023-04-07T23:49:17.300Z,0.88
2023-04-07T23:54:25.479Z,0.75
2023-04-07T23:59:28.102Z,0.90
